createdAt,value
2023-05-15T00:00:32.366Z,28.35
2023-05-15T00:03:02.554Z,25.92
2023-05-15T00:05:32.230Z,28.73
2023-05-15T00:08:01.906Z,30.17
2023-05-15T00:10:31.531Z,28.83
2023-05-15T00:13:03.834Z,30.30
2023-05-15T00:15:33.553Z,26.17
2023-05-15T00:18:03.157Z,26.73
2023-05-15T00:20:32.759Z,28.42
2023-05-15T00:23:02.303Z,28.88
2023-05-15T00:25:38.243Z,31.83
2023-05-15T00:28:10.561Z,32.97
2023-05-15T00:30:40.065Z,30.98
2023-05-15T00:33:09.721Z,37.08
2023-05-15T00:35:39.296Z,29.85
2023-05-15T00:38:08.867Z,25.60
2023-05-15T00:40:39.925Z,32.00
2023-05-15T00:43:13.962Z,29.73
2023-05-15T00:45:45.736Z,30.95
2023-05-15T00:48:16.675Z,32.72
2023-05-15T00:50:47.269Z,31.73
2023-05-15T00:53:17.279Z,35.03
2023-05-15T00:55:48.487Z,28.17
2023-05-15T00:58:24.185Z,26.98
2023-05-15T01:00:54.243Z,26.38
2023-05-15T01:03:23.875Z,26.63
2023-05-15T01:05:53.639Z,26.13
2023-05-15T01:08:29.265Z,23.52
2023-05-15T01:11:01.173Z,24.50
2023-05-15T01:13:33.276Z,24.63
2023-05-15T01:16:02.867Z,23.77
2023-05-15T01:18:34.832Z,21.48
2023-05-15T01:21:43.196Z,24.20
2023-05-15T01:24:28.588Z,21.70
2023-05-15T01:27:17.946Z,20.60
2023-05-15T01:29:56.264Z,21.33
2023-05-15T01:32:32.472Z,22.38
2023-05-15T01:35:12.036Z,25.45
2023-05-15T01:37:50.185Z,27.30
2023-05-15T01:40:24.789Z,21.15
2023-05-15T01:42:58.229Z,23.48
2023-05-15T01:45:30.168Z,18.48
2023-05-15T01:48:03.377Z,19.98
2023-05-15T01:50:35.463Z,16.67
2023-05-15T01:53:05.980Z,18.77
2023-05-15T01:55:37.485Z,19.33
2023-05-15T01:58:10.033Z,20.02
2023-05-15T02:00:41.079Z,18.02
2023-05-15T02:03:11.675Z,19.75
2023-05-15T02:05:42.034Z,19.73
2023-05-15T02:08:13.928Z,19.48
2023-05-15T02:10:44.096Z,16.33
2023-05-15T02:13:17.095Z,18.10
2023-05-15T02:15:46.672Z,17.02
2023-05-15T02:18:16.294Z,16.70
2023-05-15T02:20:45.835Z,17.88
2023-05-15T02:23:15.383Z,16.52
2023-05-15T02:25:59.275Z,17.35
2023-05-15T02:28:38.765Z,16.35
2023-05-15T02:31:14.868Z,14.88
2023-05-15T02:36:24.083Z,17.52
2023-05-15T02:38:56.442Z,16.63
2023-05-15T02:41:26.587Z,17.77
2023-05-15T02:44:00.453Z,17.67
2023-05-15T02:46:31.197Z,13.68
2023-05-15T02:49:01.599Z,18.02
2023-05-15T02:51:31.321Z,18.52
2023-05-15T02:54:02.626Z,15.80
2023-05-15T02:56:32.171Z,16.95
2023-05-15T02:59:04.657Z,15.57
2023-05-15T03:01:34.330Z,15.57
2023-05-15T03:04:03.943Z,14.23
2023-05-15T03:06:33.910Z,16.25
2023-05-15T03:09:03.675Z,18.85
2023-05-15T03:11:33.197Z,21.98
2023-05-15T03:14:05.286Z,22.38
2023-05-15T03:16:37.083Z,28.58
2023-05-15T03:19:06.754Z,17.85
2023-05-15T03:21:37.161Z,17.45
2023-05-15T03:24:06.985Z,13.00
2023-05-15T03:26:36.622Z,11.93
2023-05-15T03:29:08.780Z,13.18
2023-05-15T03:31:38.381Z,16.95
2023-05-15T03:34:07.974Z,17.52
2023-05-15T03:36:37.512Z,16.02
2023-05-15T03:39:07.736Z,13.73
2023-05-15T03:41:37.277Z,16.48
2023-05-15T03:44:09.480Z,14.32
2023-05-15T03:46:39.079Z,17.65
2023-05-15T03:49:08.648Z,15.52
2023-05-15T03:51:38.323Z,18.50
2023-05-15T03:54:08.437Z,17.45
2023-05-15T03:56:38.001Z,20.33
2023-05-15T03:59:10.235Z,18.55
2023-05-15T04:01:51.014Z,18.88
2023-05-15T04:04:29.240Z,20.08
2023-05-15T04:06:58.812Z,20.48
2023-05-15T04:09:28.524Z,20.00
2023-05-15T04:11:58.079Z,19.35
2023-05-15T04:14:30.190Z,21.48
2023-05-15T04:16:59.742Z,20.20
2023-05-15T04:19:29.374Z,20.90
2023-05-15T04:21:58.908Z,22.52
2023-05-15T04:24:28.455Z,19.80
2023-05-15T04:26:58.047Z,22.25
2023-05-15T04:29:30.195Z,21.88
2023-05-15T04:32:00.324Z,21.50
2023-05-15T04:34:30.233Z,19.35
2023-05-15T04:36:59.843Z,21.10
2023-05-15T04:39:29.402Z,20.50
2023-05-15T04:41:59.004Z,19.77
2023-05-15T04:44:31.111Z,20.98
2023-05-15T04:47:00.697Z,18.25
2023-05-15T04:49:30.207Z,17.70
2023-05-15T04:51:59.739Z,18.08
2023-05-15T04:54:29.275Z,17.23
2023-05-15T04:56:58.776Z,18.95
2023-05-15T05:02:05.875Z,17.25
2023-05-15T05:04:35.479Z,17.33
2023-05-15T05:07:06.043Z,17.50
2023-05-15T05:09:35.572Z,16.60
2023-05-15T05:12:05.076Z,16.35
2023-05-15T05:14:37.653Z,15.82
2023-05-15T05:17:07.599Z,14.25
2023-05-15T05:19:37.208Z,16.38
2023-05-15T05:22:07.900Z,15.73
2023-05-15T05:24:38.228Z,19.02
2023-05-15T05:27:08.889Z,16.23
2023-05-15T05:29:41.108Z,17.48
2023-05-15T05:32:10.907Z,16.55
2023-05-15T05:34:40.420Z,16.48
2023-05-15T05:37:10.017Z,17.00
2023-05-15T05:39:39.551Z,14.38
2023-05-15T05:42:09.155Z,16.45
2023-05-15T05:44:41.268Z,15.35
2023-05-15T05:47:10.910Z,16.45
2023-05-15T05:49:40.597Z,15.80
2023-05-15T05:52:10.935Z,14.73
2023-05-15T05:54:40.537Z,15.77
2023-05-15T05:57:10.546Z,15.45
2023-05-15T05:59:42.945Z,12.25
2023-05-15T06:02:13.046Z,14.23
2023-05-15T06:04:42.617Z,14.15
2023-05-15T06:07:12.426Z,16.98
2023-05-15T06:09:41.972Z,16.08
2023-05-15T06:12:11.531Z,18.20
2023-05-15T06:14:43.790Z,17.55
2023-05-15T06:17:13.480Z,16.50
2023-05-15T06:19:43.128Z,15.23
2023-05-15T06:22:12.641Z,17.65
2023-05-15T06:24:42.401Z,15.57
2023-05-15T06:27:11.926Z,15.20
2023-05-15T06:29:44.064Z,19.35
2023-05-15T06:32:13.579Z,14.48
2023-05-15T06:34:43.089Z,13.48
2023-05-15T06:37:12.859Z,14.32
2023-05-15T06:39:42.446Z,16.13
2023-05-15T06:42:12.414Z,14.48
2023-05-15T06:44:44.579Z,15.70
2023-05-15T06:47:14.121Z,17.60
2023-05-15T06:49:43.736Z,16.35
2023-05-15T06:52:13.498Z,17.63
2023-05-15T06:54:43.462Z,16.88
2023-05-15T06:57:13.043Z,14.20
2023-05-15T06:59:45.168Z,13.80
2023-05-15T07:02:14.930Z,14.43
2023-05-15T07:04:44.536Z,16.08
2023-05-15T07:07:14.528Z,15.90
2023-05-15T07:09:48.476Z,17.65
2023-05-15T07:12:18.165Z,18.23
2023-05-15T07:14:50.285Z,15.85
2023-05-15T07:17:19.851Z,15.95
2023-05-15T07:19:49.409Z,12.45
2023-05-15T07:22:18.978Z,16.27
2023-05-15T07:24:48.483Z,13.63
2023-05-15T07:27:18.009Z,13.88
2023-05-15T07:29:50.107Z,14.18
2023-05-15T07:32:19.944Z,14.02
2023-05-15T07:34:49.518Z,14.80
2023-05-15T07:37:19.073Z,13.57
2023-05-15T07:39:48.645Z,13.68
2023-05-15T07:42:18.311Z,17.55
2023-05-15T07:44:50.479Z,12.95
2023-05-15T07:47:20.042Z,13.52
2023-05-15T07:49:49.566Z,12.13
2023-05-15T07:52:19.275Z,11.02
2023-05-15T07:54:48.813Z,12.30
2023-05-15T07:57:18.481Z,13.07
2023-05-15T07:59:50.614Z,13.57
2023-05-15T08:02:20.225Z,13.25
2023-05-15T08:04:49.837Z,13.48
2023-05-15T08:07:19.644Z,13.07
2023-05-15T08:09:49.283Z,13.40
2023-05-15T08:12:21.374Z,13.07
2023-05-15T08:14:55.679Z,12.20
2023-05-15T08:17:26.132Z,15.10
2023-05-15T08:19:56.230Z,14.13
2023-05-15T08:22:25.848Z,14.63
2023-05-15T08:24:55.458Z,13.65
2023-05-15T08:27:25.040Z,15.68
2023-05-15T08:29:57.198Z,15.35
2023-05-15T08:32:27.422Z,14.80
2023-05-15T08:34:56.985Z,13.85
2023-05-15T08:37:26.582Z,14.00
2023-05-15T08:39:56.158Z,14.00
2023-05-15T08:42:33.978Z,16.20
2023-05-15T08:45:07.522Z,13.80
2023-05-15T08:47:41.515Z,12.70
2023-05-15T08:50:14.747Z,14.48
2023-05-15T08:52:47.110Z,12.43
2023-05-15T08:55:17.526Z,14.02
2023-05-15T08:57:47.793Z,13.65
2023-05-15T09:00:22.277Z,13.35
2023-05-15T09:02:51.991Z,19.10
2023-05-15T09:05:21.712Z,13.13
2023-05-15T09:07:52.181Z,15.35
2023-05-15T09:10:22.302Z,14.65
2023-05-15T09:12:54.844Z,14.32
2023-05-15T09:15:28.227Z,14.95
2023-05-15T09:17:58.038Z,15.23
2023-05-15T09:20:29.666Z,15.85
2023-05-15T09:22:59.795Z,14.10
2023-05-15T09:25:43.541Z,16.63
2023-05-15T09:28:28.112Z,16.42
2023-05-15T09:31:05.217Z,14.15
2023-05-15T09:33:36.685Z,16.15
2023-05-15T09:36:07.684Z,16.00
2023-05-15T09:38:38.170Z,18.83
2023-05-15T09:41:08.901Z,17.42
2023-05-15T09:43:40.543Z,17.33
2023-05-15T09:46:16.082Z,15.27
2023-05-15T09:48:46.065Z,14.40
2023-05-15T09:51:18.417Z,15.20
2023-05-15T09:53:51.681Z,17.02
2023-05-15T09:56:22.162Z,16.00
2023-05-15T09:58:56.292Z,14.30
2023-05-15T10:01:29.346Z,15.73
2023-05-15T10:04:02.739Z,15.07
2023-05-15T10:06:38.428Z,14.93
2023-05-15T10:09:09.382Z,14.70
2023-05-15T10:11:40.333Z,11.02
2023-05-15T10:14:11.895Z,13.52
2023-05-15T10:16:44.280Z,10.98
2023-05-15T10:19:15.787Z,11.70
2023-05-15T10:21:45.483Z,11.27
2023-05-15T10:24:16.443Z,11.63
2023-05-15T10:26:46.465Z,10.73
2023-05-15T10:29:18.162Z,10.10
2023-05-15T10:31:52.445Z,10.00
2023-05-15T10:34:22.989Z,10.20
2023-05-15T10:36:52.848Z,9.98
2023-05-15T10:39:23.557Z,11.30
2023-05-15T10:41:54.034Z,12.20
2023-05-15T10:44:24.962Z,11.85
2023-05-15T10:46:58.308Z,9.88
2023-05-15T10:49:28.107Z,10.48
2023-05-15T10:51:57.713Z,9.40
2023-05-15T10:54:27.298Z,8.13
2023-05-15T10:56:58.900Z,8.40
2023-05-15T10:59:34.131Z,6.82
2023-05-15T11:02:24.901Z,8.05
2023-05-15T11:04:59.567Z,8.27
2023-05-15T11:07:29.573Z,7.03
2023-05-15T11:09:59.994Z,7.45
2023-05-15T11:12:58.899Z,9.00
2023-05-15T11:15:28.490Z,7.90
2023-05-15T11:18:10.975Z,11.02
2023-05-15T11:20:45.778Z,9.30
2023-05-15T11:23:15.361Z,9.82
2023-05-15T11:25:44.965Z,8.88
2023-05-15T11:28:24.820Z,8.63
2023-05-15T11:30:55.924Z,8.05
2023-05-15T11:33:32.809Z,8.63
2023-05-15T11:36:03.264Z,7.72
2023-05-15T11:38:40.708Z,7.80
2023-05-15T11:41:30.127Z,6.90
2023-05-15T11:44:00.280Z,6.32
2023-05-15T11:46:30.629Z,7.03
2023-05-15T11:49:02.958Z,7.30
2023-05-15T11:51:32.950Z,7.07
2023-05-15T11:54:07.510Z,7.32
2023-05-15T11:56:37.617Z,7.43
2023-05-15T11:59:07.155Z,9.20
2023-05-15T12:01:42.629Z,8.70
2023-05-15T12:04:19.611Z,9.25
2023-05-15T12:06:50.154Z,9.50
2023-05-15T12:09:22.785Z,8.23
2023-05-15T12:11:54.223Z,8.35
2023-05-15T12:14:29.899Z,9.32
2023-05-15T12:17:03.077Z,7.75
2023-05-15T12:19:37.297Z,7.88
2023-05-15T12:22:08.575Z,8.10
2023-05-15T12:24:41.526Z,5.80
2023-05-15T12:27:11.687Z,5.85
2023-05-15T12:29:42.998Z,8.02
2023-05-15T12:32:13.298Z,6.85
2023-05-15T12:34:45.932Z,6.28
2023-05-15T12:37:16.291Z,6.93
2023-05-15T12:39:56.923Z,7.18
2023-05-15T12:42:26.623Z,7.00
2023-05-15T12:44:57.517Z,7.18
2023-05-15T12:47:28.741Z,6.15
2023-05-15T12:50:01.376Z,7.72
2023-05-15T12:52:31.754Z,5.30
2023-05-15T12:55:03.858Z,5.65
2023-05-15T12:57:33.513Z,6.50
2023-05-15T13:00:04.471Z,5.00
2023-05-15T13:02:34.051Z,4.68
2023-05-15T13:05:07.979Z,5.28
2023-05-15T13:07:37.696Z,5.40
2023-05-15T13:10:14.417Z,6.85
2023-05-15T13:12:47.108Z,5.30
2023-05-15T13:15:28.140Z,6.13
2023-05-15T13:18:01.688Z,5.38
2023-05-15T13:20:36.670Z,8.88
2023-05-15T13:23:06.619Z,7.13
2023-05-15T13:25:36.739Z,7.65
2023-05-15T13:28:07.821Z,6.57
2023-05-15T13:30:41.661Z,7.90
2023-05-15T13:33:12.640Z,6.93
2023-05-15T13:35:45.989Z,8.70
2023-05-15T13:38:15.650Z,7.75
2023-05-15T13:40:45.217Z,7.53
2023-05-15T13:43:15.044Z,6.68
2023-05-15T13:45:44.636Z,7.50
2023-05-15T13:48:14.334Z,9.05
2023-05-15T13:50:46.535Z,8.02
2023-05-15T13:53:17.170Z,9.20
2023-05-15T13:55:47.528Z,7.75
2023-05-15T13:58:17.116Z,8.23
2023-05-15T14:00:47.424Z,9.68
2023-05-15T14:03:17.119Z,8.95
2023-05-15T14:05:49.359Z,9.07
2023-05-15T14:08:18.919Z,8.63
2023-05-15T14:10:48.603Z,9.70
2023-05-15T14:13:18.134Z,7.72
2023-05-15T14:15:47.703Z,8.15
2023-05-15T14:18:17.256Z,9.73
2023-05-15T14:20:49.388Z,8.48
2023-05-15T14:23:18.928Z,7.93
2023-05-15T14:25:48.448Z,7.65
2023-05-15T14:28:17.968Z,9.57
2023-05-15T14:30:47.483Z,8.77
2023-05-15T14:33:17.182Z,8.50
2023-05-15T14:35:49.319Z,8.82
2023-05-15T14:38:18.854Z,9.32
2023-05-15T14:40:48.447Z,9.68
2023-05-15T14:43:17.989Z,6.47
2023-05-15T14:45:47.592Z,7.30
2023-05-15T14:48:17.393Z,7.80
2023-05-15T14:50:49.543Z,7.57
2023-05-15T14:53:19.126Z,9.07
2023-05-15T14:55:48.740Z,7.57
2023-05-15T14:58:18.422Z,7.55
2023-05-15T15:00:48.402Z,6.80
2023-05-15T15:03:19.288Z,7.85
2023-05-15T15:05:52.064Z,7.63
2023-05-15T15:08:21.672Z,7.57
2023-05-15T15:10:51.263Z,8.05
2023-05-15T15:13:21.272Z,7.38
2023-05-15T15:15:50.962Z,6.13
2023-05-15T15:18:21.537Z,7.32
2023-05-15T15:20:53.766Z,6.28
2023-05-15T15:23:23.391Z,8.13
2023-05-15T15:25:53.006Z,6.28
2023-05-15T15:28:22.587Z,7.18
2023-05-15T15:30:52.174Z,7.07
2023-05-15T15:33:21.692Z,7.10
2023-05-15T15:35:53.835Z,6.55
2023-05-15T15:38:23.549Z,6.47
2023-05-15T15:40:53.105Z,7.53
2023-05-15T15:43:22.646Z,6.82
2023-05-15T15:45:52.273Z,6.60
2023-05-15T15:48:21.819Z,8.50
2023-05-15T15:50:54.431Z,7.72
2023-05-15T15:53:24.455Z,6.95
2023-05-15T15:55:53.993Z,8.52
2023-05-15T15:58:23.991Z,7.95
2023-05-15T16:00:53.667Z,8.93
2023-05-15T16:03:23.304Z,8.50
2023-05-15T16:05:56.993Z,8.60
2023-05-15T16:08:28.104Z,9.30
2023-05-15T16:10:58.170Z,10.00
2023-05-15T16:13:27.798Z,8.98
2023-05-15T16:15:57.373Z,10.95
2023-05-15T16:18:27.414Z,10.40
2023-05-15T16:20:59.544Z,9.55
2023-05-15T16:23:29.116Z,16.00
2023-05-15T16:25:59.136Z,11.50
2023-05-15T16:28:28.710Z,13.70
2023-05-15T16:30:58.384Z,13.13
2023-05-15T16:33:28.028Z,12.10
2023-05-15T16:36:00.284Z,14.40
2023-05-15T16:38:29.871Z,13.77
2023-05-15T16:40:59.375Z,12.05
2023-05-15T16:43:29.089Z,16.20
2023-05-15T16:45:59.128Z,13.70
2023-05-15T16:48:29.016Z,13.82
2023-05-15T16:51:01.352Z,13.25
2023-05-15T16:53:31.049Z,13.23
2023-05-15T16:56:00.736Z,12.52
2023-05-15T16:58:30.284Z,15.48
2023-05-15T17:00:59.824Z,16.45
2023-05-15T17:03:29.485Z,14.63
2023-05-15T17:06:01.691Z,15.88
2023-05-15T17:08:31.240Z,14.18
2023-05-15T17:13:36.293Z,14.73
2023-05-15T17:16:05.918Z,14.75
2023-05-15T17:18:35.747Z,14.20
2023-05-15T17:21:08.008Z,14.35
2023-05-15T17:23:37.797Z,14.90
2023-05-15T17:26:07.407Z,15.05
2023-05-15T17:28:39.033Z,14.82
2023-05-15T17:31:12.388Z,14.77
2023-05-15T17:33:42.463Z,15.75
2023-05-15T17:36:14.814Z,14.43
2023-05-15T17:38:44.920Z,15.07
2023-05-15T17:41:14.485Z,17.75
2023-05-15T17:43:44.068Z,17.85
2023-05-15T17:46:13.791Z,18.73
2023-05-15T17:48:43.427Z,18.70
2023-05-15T17:51:15.611Z,18.10
2023-05-15T17:53:45.257Z,20.05
2023-05-15T17:56:14.912Z,17.88
2023-05-15T17:58:44.693Z,17.23
2023-05-15T18:01:14.330Z,17.10
2023-05-15T18:03:43.930Z,19.08
2023-05-15T18:06:16.538Z,16.67
2023-05-15T18:08:47.714Z,20.10
2023-05-15T18:11:22.255Z,23.33
2023-05-15T18:13:52.428Z,18.70
2023-05-15T18:16:22.201Z,20.52
2023-05-15T18:18:52.406Z,18.08
2023-05-15T18:21:24.589Z,17.52
2023-05-15T18:23:54.193Z,17.50
2023-05-15T18:26:25.810Z,16.15
2023-05-15T18:28:55.427Z,20.67
2023-05-15T18:31:25.235Z,19.77
2023-05-15T18:33:54.816Z,18.48
2023-05-15T18:36:26.961Z,19.42
2023-05-15T18:38:56.532Z,17.52
2023-05-15T18:41:27.019Z,16.25
2023-05-15T18:43:56.521Z,18.35
2023-05-15T18:46:28.493Z,19.77
2023-05-15T18:48:58.197Z,19.02
2023-05-15T18:51:31.089Z,22.38
2023-05-15T18:54:00.658Z,21.33
2023-05-15T18:56:30.192Z,24.67
2023-05-15T18:58:59.720Z,19.08
2023-05-15T19:01:29.270Z,23.05
2023-05-15T19:03:59.001Z,23.80
2023-05-15T19:06:31.242Z,22.85
2023-05-15T19:09:00.755Z,21.38
2023-05-15T19:11:30.246Z,22.45
2023-05-15T19:13:59.834Z,21.75
2023-05-15T19:16:29.630Z,22.35
2023-05-15T19:18:59.584Z,19.27
2023-05-15T19:21:31.775Z,20.23
2023-05-15T19:24:01.335Z,25.20
2023-05-15T19:26:31.311Z,22.67
2023-05-15T19:29:00.994Z,19.58
2023-05-15T19:31:32.273Z,18.35
2023-05-15T19:34:02.267Z,18.98
2023-05-15T19:36:34.389Z,13.98
2023-05-15T19:39:03.946Z,15.40
2023-05-15T19:41:33.494Z,15.85
2023-05-15T19:44:04.011Z,15.07
2023-05-15T19:46:33.662Z,13.10
2023-05-15T19:49:03.382Z,15.50
2023-05-15T19:51:35.700Z,15.60
2023-05-15T19:54:05.226Z,14.75
2023-05-15T19:56:34.805Z,14.90
2023-05-15T19:59:04.371Z,17.90
2023-05-15T20:01:33.917Z,17.63
2023-05-15T20:04:03.501Z,18.48
2023-05-15T20:06:36.371Z,17.77
2023-05-15T20:09:06.150Z,17.38
2023-05-15T20:11:35.858Z,15.85
2023-05-15T20:14:08.257Z,17.58
2023-05-15T20:16:37.894Z,17.13
2023-05-15T20:19:07.957Z,18.23
2023-05-15T20:21:40.522Z,16.35
2023-05-15T20:24:10.445Z,17.67
2023-05-15T20:26:39.998Z,18.55
2023-05-15T20:29:09.492Z,18.98
2023-05-15T20:31:40.738Z,18.23
2023-05-15T20:34:15.045Z,20.65
2023-05-15T20:36:47.504Z,18.42
2023-05-15T20:39:17.485Z,19.17
2023-05-15T20:41:47.091Z,19.98
2023-05-15T20:44:16.611Z,21.00
2023-05-15T20:46:46.597Z,24.92
2023-05-15T20:49:16.196Z,19.13
2023-05-15T20:51:48.897Z,21.02
2023-05-15T20:54:18.541Z,23.42
2023-05-15T20:56:48.053Z,21.45
2023-05-15T20:59:17.909Z,20.58
2023-05-15T21:01:47.478Z,19.58
2023-05-15T21:04:17.193Z,18.85
2023-05-15T21:06:49.474Z,18.00
2023-05-15T21:09:19.426Z,18.70
2023-05-15T21:11:49.199Z,22.05
2023-05-15T21:14:18.962Z,20.15
2023-05-15T21:16:48.592Z,18.92
2023-05-15T21:19:18.456Z,18.70
2023-05-15T21:21:50.953Z,17.20
2023-05-15T21:24:20.555Z,18.98
2023-05-15T21:26:50.087Z,16.10
2023-05-15T21:29:19.729Z,18.75
2023-05-15T21:31:49.392Z,17.77
2023-05-15T21:34:19.015Z,15.90
2023-05-15T21:36:51.175Z,17.10
2023-05-15T21:39:20.731Z,17.65
2023-05-15T21:41:51.173Z,16.38
2023-05-15T21:44:24.141Z,18.10
2023-05-15T21:46:53.722Z,17.13
2023-05-15T21:49:23.278Z,18.55
2023-05-15T21:51:55.376Z,21.05
2023-05-15T21:54:24.899Z,19.73
2023-05-15T21:56:54.600Z,17.38
2023-05-15T21:59:24.534Z,19.95
2023-05-15T22:01:54.179Z,20.33
2023-05-15T22:04:23.761Z,25.13
2023-05-15T22:06:56.032Z,23.65
2023-05-15T22:09:25.563Z,28.90
2023-05-15T22:11:55.112Z,26.77
2023-05-15T22:14:24.619Z,27.48
2023-05-15T22:16:54.165Z,21.90
2023-05-15T22:19:32.586Z,26.48
2023-05-15T22:22:05.542Z,23.95
2023-05-15T22:24:35.111Z,24.30
2023-05-15T22:27:04.627Z,24.48
2023-05-15T22:29:34.128Z,24.85
2023-05-15T22:32:03.796Z,22.67
2023-05-15T22:34:33.431Z,23.40
2023-05-15T22:37:05.583Z,23.80
2023-05-15T22:39:36.397Z,23.13
2023-05-15T22:42:07.274Z,23.35
2023-05-15T22:44:36.836Z,24.75
2023-05-15T22:47:07.852Z,25.38
2023-05-15T22:49:38.096Z,24.50
2023-05-15T22:54:45.280Z,23.05
2023-05-15T22:57:14.867Z,23.38
2023-05-15T22:59:44.705Z,23.33
2023-05-15T23:02:14.178Z,21.38
2023-05-15T23:04:43.716Z,21.63
2023-05-15T23:07:17.443Z,27.08
2023-05-15T23:09:47.139Z,22.70
2023-05-15T23:12:16.650Z,20.00
2023-05-15T23:14:46.178Z,22.42
2023-05-15T23:17:15.692Z,23.73
2023-05-15T23:19:45.231Z,23.20
2023-05-15T23:22:17.324Z,23.38
2023-05-15T23:24:46.839Z,27.63
2023-05-15T23:27:16.378Z,25.55
2023-05-15T23:29:46.344Z,24.80
2023-05-15T23:32:15.882Z,22.48
2023-05-15T23:34:45.426Z,23.13
2023-05-15T23:37:17.555Z,23.98
2023-05-15T23:39:47.066Z,28.40
2023-05-15T23:42:16.657Z,26.00
2023-05-15T23:44:46.840Z,29.33
2023-05-15T23:47:16.402Z,21.77
2023-05-15T23:49:46.053Z,24.67
2023-05-15T23:52:18.167Z,22.45
2023-05-15T23:54:47.684Z,22.73
2023-05-15T23:57:17.311Z,23.80
2023-05-15T23:59:46.841Z,23.25
